sensor_id;sensor_type;location;lat;lon;timestamp;temperature;humidity
21801;DHT22;11062;51.164;16.924;2022-12-18T00:07:06;20.10;32.70
21801;DHT22;11062;51.164;16.924;2022-12-18T00:09:35;18.20;35.70
21801;DHT22;11062;51.164;16.924;2022-12-18T00:12:02;18.10;34.90
21801;DHT22;11062;51.164;16.924;2022-12-18T00:14:27;18.80;33.70
21801;DHT22;11062;51.164;16.924;2022-12-18T00:16:59;18.90;35.40
21801;DHT22;11062;51.164;16.924;2022-12-18T00:19:28;20.10;31.90
21801;DHT22;11062;51.164;16.924;2022-12-18T00:21:57;20.00;35.90
21801;DHT22;11062;51.164;16.924;2022-12-18T00:24:26;19.20;31.30
21801;DHT22;11062;51.164;16.924;2022-12-18T00:26:52;20.10;35.60
21801;DHT22;11062;51.164;16.924;2022-12-18T00:29:18;20.50;35.90
21801;DHT22;11062;51.164;16.924;2022-12-18T00:31:49;20.20;33.90
21801;DHT22;11062;51.164;16.924;2022-12-18T00:34:21;18.60;33.10
21801;DHT22;11062;51.164;16.924;2022-12-18T00:36:48;18.20;32.40
21801;DHT22;11062;51.164;16.924;2022-12-18T00:39:14;20.00;34.80
21801;DHT22;11062;51.164;16.924;2022-12-18T00:41:40;19.80;35.80
21801;DHT22;11062;51.164;16.924;2022-12-18T00:44:24;19.70;33.70
21801;DHT22;11062;51.164;16.924;2022-12-18T00:46:50;21.10;36.30
21801;DHT22;11062;51.164;16.924;2022-12-18T00:49:19;18.70;34.70
21801;DHT22;11062;51.164;16.924;2022-12-18T00:51:45;20.30;33.80
21801;DHT22;11062;51.164;16.924;2022-12-18T00:54:15;20.00;34.80
21801;DHT22;11062;51.164;16.924;2022-12-18T00:56:42;19.30;33.10
21801;DHT22;11062;51.164;16.924;2022-12-18T00:59:08;19.40;34.60
21801;DHT22;11062;51.164;16.924;2022-12-18T01:01:34;19.90;35.30
21801;DHT22;11062;51.164;16.924;2022-12-18T01:04:03;19.90;34.80
21801;DHT22;11062;51.164;16.924;2022-12-18T01:06:29;20.20;34.20
21801;DHT22;11062;51.164;16.924;2022-12-18T01:08:58;20.10;33.30
21801;DHT22;11062;51.164;16.924;2022-12-18T01:11:25;18.80;32.80
21801;DHT22;11062;51.164;16.924;2022-12-18T01:13:52;19.00;32.20
21801;DHT22;11062;51.164;16.924;2022-12-18T01:16:19;20.40;32.70
21801;DHT22;11062;51.164;16.924;2022-12-18T01:18:45;19.40;32.40
21801;DHT22;11062;51.164;16.924;2022-12-18T01:21:14;19.40;32.30
21801;DHT22;11062;51.164;16.924;2022-12-18T01:23:46;19.70;32.30
21801;DHT22;11062;51.164;16.924;2022-12-18T01:26:25;18.80;31.00
21801;DHT22;11062;51.164;16.924;2022-12-18T01:29:43;18.20;31.10
21801;DHT22;11062;51.164;16.924;2022-12-18T01:33:06;20.00;33.10
21801;DHT22;11062;51.164;16.924;2022-12-18T01:36:45;20.30;32.00
21801;DHT22;11062;51.164;16.924;2022-12-18T01:40:18;20.60;32.00
21801;DHT22;11062;51.164;16.924;2022-12-18T01:43:59;20.40;31.90
21801;DHT22;11062;51.164;16.924;2022-12-18T02:27:42;18.90;30.60
21801;DHT22;11062;51.164;16.924;2022-12-18T02:30:10;19.10;31.90
21801;DHT22;11062;51.164;16.924;2022-12-18T02:32:44;20.00;32.10
21801;DHT22;11062;51.164;16.924;2022-12-18T02:35:23;20.80;32.50
21801;DHT22;11062;51.164;16.924;2022-12-18T02:37:50;19.80;30.90
21801;DHT22;11062;51.164;16.924;2022-12-18T02:40:17;20.20;32.20
21801;DHT22;11062;51.164;16.924;2022-12-18T02:42:44;20.30;32.50
21801;DHT22;11062;51.164;16.924;2022-12-18T02:45:13;20.30;32.40
21801;DHT22;11062;51.164;16.924;2022-12-18T02:47:42;20.20;33.90
21801;DHT22;11062;51.164;16.924;2022-12-18T02:50:19;19.50;32.40
21801;DHT22;11062;51.164;16.924;2022-12-18T02:53:10;19.00;31.10
21801;DHT22;11062;51.164;16.924;2022-12-18T02:56:13;20.40;31.90
21801;DHT22;11062;51.164;16.924;2022-12-18T02:58:56;19.50;31.50
21801;DHT22;11062;51.164;16.924;2022-12-18T03:04:20;20.10;32.00
21801;DHT22;11062;51.164;16.924;2022-12-18T03:06:54;20.40;33.10
21801;DHT22;11062;51.164;16.924;2022-12-18T03:09:27;19.30;32.70
21801;DHT22;11062;51.164;16.924;2022-12-18T03:12:02;20.40;33.50
21801;DHT22;11062;51.164;16.924;2022-12-18T03:14:58;18.30;32.40
21801;DHT22;11062;51.164;16.924;2022-12-18T03:17:27;19.80;32.20
21801;DHT22;11062;51.164;16.924;2022-12-18T03:20:02;19.20;33.40
21801;DHT22;11062;51.164;16.924;2022-12-18T03:22:32;17.90;32.00
21801;DHT22;11062;51.164;16.924;2022-12-18T03:25:02;19.40;33.10
21801;DHT22;11062;51.164;16.924;2022-12-18T03:27:29;20.00;33.90
21801;DHT22;11062;51.164;16.924;2022-12-18T03:30:16;18.20;32.70
21801;DHT22;11062;51.164;16.924;2022-12-18T03:32:48;20.00;33.30
21801;DHT22;11062;51.164;16.924;2022-12-18T03:35:23;20.70;33.10
21801;DHT22;11062;51.164;16.924;2022-12-18T03:37:50;21.60;34.30
21801;DHT22;11062;51.164;16.924;2022-12-18T03:40:16;20.00;33.40
21801;DHT22;11062;51.164;16.924;2022-12-18T03:43:07;20.00;33.20
21801;DHT22;11062;51.164;16.924;2022-12-18T03:45:48;20.00;33.00
21801;DHT22;11062;51.164;16.924;2022-12-18T03:48:29;20.70;32.90
21801;DHT22;11062;51.164;16.924;2022-12-18T03:51:05;18.90;32.10
21801;DHT22;11062;51.164;16.924;2022-12-18T03:53:38;20.60;31.70
21801;DHT22;11062;51.164;16.924;2022-12-18T03:56:13;20.80;32.70
21801;DHT22;11062;51.164;16.924;2022-12-18T03:58:42;20.20;32.20
21801;DHT22;11062;51.164;16.924;2022-12-18T04:01:10;19.80;31.80
21801;DHT22;11062;51.164;16.924;2022-12-18T04:03:38;20.80;32.20
21801;DHT22;11062;51.164;16.924;2022-12-18T04:06:05;20.60;32.20
21801;DHT22;11062;51.164;16.924;2022-12-18T04:08:37;20.40;31.80
21801;DHT22;11062;51.164;16.924;2022-12-18T04:11:05;19.50;31.90
21801;DHT22;11062;51.164;16.924;2022-12-18T04:13:36;19.10;33.10
21801;DHT22;11062;51.164;16.924;2022-12-18T04:16:03;20.80;31.40
21801;DHT22;11062;51.164;16.924;2022-12-18T04:18:30;19.80;32.30
21801;DHT22;11062;51.164;16.924;2022-12-18T04:20:56;20.70;32.90
21801;DHT22;11062;51.164;16.924;2022-12-18T04:23:25;18.70;32.10
21801;DHT22;11062;51.164;16.924;2022-12-18T04:25:53;19.20;32.70
21801;DHT22;11062;51.164;16.924;2022-12-18T04:28:19;18.40;34.50
21801;DHT22;11062;51.164;16.924;2022-12-18T04:30:45;19.20;33.20
21801;DHT22;11062;51.164;16.924;2022-12-18T04:33:14;18.10;35.10
21801;DHT22;11062;51.164;16.924;2022-12-18T04:35:40;20.30;35.50
21801;DHT22;11062;51.164;16.924;2022-12-18T04:38:07;19.80;33.40
21801;DHT22;11062;51.164;16.924;2022-12-18T04:40:37;18.30;32.50
21801;DHT22;11062;51.164;16.924;2022-12-18T04:43:03;19.00;32.80
21801;DHT22;11062;51.164;16.924;2022-12-18T04:45:33;19.80;34.50
21801;DHT22;11062;51.164;16.924;2022-12-18T04:48:00;19.60;34.60
21801;DHT22;11062;51.164;16.924;2022-12-18T04:50:26;19.70;32.70
21801;DHT22;11062;51.164;16.924;2022-12-18T04:52:52;19.70;32.70
21801;DHT22;11062;51.164;16.924;2022-12-18T04:55:21;20.10;33.40
21801;DHT22;11062;51.164;16.924;2022-12-18T04:57:51;20.20;32.80
21801;DHT22;11062;51.164;16.924;2022-12-18T05:00:17;19.80;34.30
21801;DHT22;11062;51.164;16.924;2022-12-18T05:02:43;18.80;33.40
21801;DHT22;11062;51.164;16.924;2022-12-18T05:05:09;18.10;33.70
21801;DHT22;11062;51.164;16.924;2022-12-18T05:07:37;18.40;35.00
21801;DHT22;11062;51.164;16.924;2022-12-18T05:10:04;19.30;35.60
21801;DHT22;11062;51.164;16.924;2022-12-18T05:12:33;18.80;33.60
21801;DHT22;11062;51.164;16.924;2022-12-18T05:15:26;18.80;33.80
21801;DHT22;11062;51.164;16.924;2022-12-18T05:17:52;19.50;33.70
21801;DHT22;11062;51.164;16.924;2022-12-18T05:20:23;19.00;33.70
21801;DHT22;11062;51.164;16.924;2022-12-18T05:22:50;19.00;32.10
21801;DHT22;11062;51.164;16.924;2022-12-18T05:25:17;19.30;33.30
21801;DHT22;11062;51.164;16.924;2022-12-18T06:48:35;19.30;31.30
21801;DHT22;11062;51.164;16.924;2022-12-18T06:51:03;20.00;32.80
21801;DHT22;11062;51.164;16.924;2022-12-18T06:53:29;19.50;32.50
21801;DHT22;11062;51.164;16.924;2022-12-18T06:56:06;19.40;34.60
21801;DHT22;11062;51.164;16.924;2022-12-18T06:58:33;18.80;32.80
21801;DHT22;11062;51.164;16.924;2022-12-18T07:01:08;17.40;34.00
21801;DHT22;11062;51.164;16.924;2022-12-18T07:03:35;19.00;33.00
21801;DHT22;11062;51.164;16.924;2022-12-18T07:06:04;17.60;32.20
21801;DHT22;11062;51.164;16.924;2022-12-18T07:08:33;17.80;32.80
21801;DHT22;11062;51.164;16.924;2022-12-18T07:11:02;18.40;35.30
21801;DHT22;11062;51.164;16.924;2022-12-18T07:13:28;18.10;33.80
21801;DHT22;11062;51.164;16.924;2022-12-18T07:16:08;17.90;35.60
21801;DHT22;11062;51.164;16.924;2022-12-18T07:18:34;16.50;32.60
21801;DHT22;11062;51.164;16.924;2022-12-18T07:21:08;18.20;36.80
21801;DHT22;11062;51.164;16.924;2022-12-18T07:23:35;17.60;34.00
21801;DHT22;11062;51.164;16.924;2022-12-18T07:26:05;16.50;33.40
21801;DHT22;11062;51.164;16.924;2022-12-18T07:28:33;17.10;34.20
21801;DHT22;11062;51.164;16.924;2022-12-18T07:31:05;17.20;34.10
21801;DHT22;11062;51.164;16.924;2022-12-18T07:33:34;16.20;33.70
21801;DHT22;11062;51.164;16.924;2022-12-18T07:36:02;17.80;34.60
21801;DHT22;11062;51.164;16.924;2022-12-18T07:38:32;15.90;34.20
21801;DHT22;11062;51.164;16.924;2022-12-18T07:41:07;17.50;34.90
21801;DHT22;11062;51.164;16.924;2022-12-18T07:43:37;17.90;35.90
21801;DHT22;11062;51.164;16.924;2022-12-18T07:46:04;15.60;35.00
21801;DHT22;11062;51.164;16.924;2022-12-18T07:48:35;15.40;35.90
21801;DHT22;11062;51.164;16.924;2022-12-18T07:51:06;16.30;35.30
21801;DHT22;11062;51.164;16.924;2022-12-18T07:53:35;15.60;39.40
21801;DHT22;11062;51.164;16.924;2022-12-18T07:56:03;15.30;37.10
21801;DHT22;11062;51.164;16.924;2022-12-18T09:52:41;17.40;33.40
21801;DHT22;11062;51.164;16.924;2022-12-18T09:55:28;17.50;33.40
21801;DHT22;11062;51.164;16.924;2022-12-18T09:58:39;17.20;33.40
21801;DHT22;11062;51.164;16.924;2022-12-18T10:01:20;17.50;33.70
21801;DHT22;11062;51.164;16.924;2022-12-18T10:03:47;17.80;33.40
21801;DHT22;11062;51.164;16.924;2022-12-18T10:09:34;18.20;32.50
21801;DHT22;11062;51.164;16.924;2022-12-18T10:12:26;18.50;32.50
21801;DHT22;11062;51.164;16.924;2022-12-18T10:25:32;18.20;31.80
21801;DHT22;11062;51.164;16.924;2022-12-18T10:28:10;18.60;32.20
21801;DHT22;11062;51.164;16.924;2022-12-18T10:30:39;18.50;32.00
21801;DHT22;11062;51.164;16.924;2022-12-18T10:33:21;18.40;32.10
21801;DHT22;11062;51.164;16.924;2022-12-18T12:00:50;15.10;34.50
21801;DHT22;11062;51.164;16.924;2022-12-18T13:16:04;18.50;32.00
21801;DHT22;11062;51.164;16.924;2022-12-18T13:47:51;19.80;31.80
21801;DHT22;11062;51.164;16.924;2022-12-18T14:01:57;19.40;32.00
21801;DHT22;11062;51.164;16.924;2022-12-18T14:19:48;18.70;31.50
21801;DHT22;11062;51.164;16.924;2022-12-18T14:22:21;19.00;32.40
21801;DHT22;11062;51.164;16.924;2022-12-18T14:25:04;18.20;33.70
21801;DHT22;11062;51.164;16.924;2022-12-18T14:27:30;18.10;35.00
21801;DHT22;11062;51.164;16.924;2022-12-18T14:29:59;16.30;38.10
21801;DHT22;11062;51.164;16.924;2022-12-18T14:32:25;15.10;35.00
21801;DHT22;11062;51.164;16.924;2022-12-18T14:35:12;15.10;36.10
21801;DHT22;11062;51.164;16.924;2022-12-18T14:37:41;15.20;36.30
21801;DHT22;11062;51.164;16.924;2022-12-18T14:40:13;15.00;35.80
21801;DHT22;11062;51.164;16.924;2022-12-18T14:42:42;14.80;36.10
21801;DHT22;11062;51.164;16.924;2022-12-18T14:45:33;14.70;36.50
21801;DHT22;11062;51.164;16.924;2022-12-18T14:51:02;15.40;38.20
21801;DHT22;11062;51.164;16.924;2022-12-18T15:21:03;13.70;38.20
21801;DHT22;11062;51.164;16.924;2022-12-18T15:23:55;13.90;38.30
21801;DHT22;11062;51.164;16.924;2022-12-18T15:28:55;14.60;37.30
21801;DHT22;11062;51.164;16.924;2022-12-18T15:34:31;14.30;37.50
21801;DHT22;11062;51.164;16.924;2022-12-18T16:15:17;16.20;34.00
21801;DHT22;11062;51.164;16.924;2022-12-18T16:20:30;16.30;34.20
21801;DHT22;11062;51.164;16.924;2022-12-18T16:22:59;13.80;34.60
21801;DHT22;11062;51.164;16.924;2022-12-18T16:25:31;15.70;34.20
21801;DHT22;11062;51.164;16.924;2022-12-18T16:28:02;15.80;34.60
21801;DHT22;11062;51.164;16.924;2022-12-18T17:25:05;16.70;32.50
21801;DHT22;11062;51.164;16.924;2022-12-18T17:30:02;16.60;32.80
21801;DHT22;11062;51.164;16.924;2022-12-18T17:39:52;16.70;32.60
21801;DHT22;11062;51.164;16.924;2022-12-18T17:57:06;16.90;33.90
21801;DHT22;11062;51.164;16.924;2022-12-18T18:06:57;15.60;32.70
21801;DHT22;11062;51.164;16.924;2022-12-18T18:19:32;16.70;32.60
21801;DHT22;11062;51.164;16.924;2022-12-18T18:24:37;16.70;32.10
21801;DHT22;11062;51.164;16.924;2022-12-18T18:27:42;16.60;32.00
21801;DHT22;11062;51.164;16.924;2022-12-18T18:36:47;16.70;32.80
21801;DHT22;11062;51.164;16.924;2022-12-18T18:39:16;16.60;32.10
21801;DHT22;11062;51.164;16.924;2022-12-18T18:41:49;16.70;32.20
21801;DHT22;11062;51.164;16.924;2022-12-18T18:44:16;16.60;32.00
21801;DHT22;11062;51.164;16.924;2022-12-18T18:46:55;16.60;32.20
21801;DHT22;11062;51.164;16.924;2022-12-18T18:56:20;16.50;32.00
21801;DHT22;11062;51.164;16.924;2022-12-18T19:01:18;16.60;31.80
21801;DHT22;11062;51.164;16.924;2022-12-18T19:03:48;16.60;31.80
21801;DHT22;11062;51.164;16.924;2022-12-18T19:24:59;16.80;32.90
21801;DHT22;11062;51.164;16.924;2022-12-18T19:32:21;16.70;32.60
21801;DHT22;11062;51.164;16.924;2022-12-18T19:37:19;16.80;30.90
21801;DHT22;11062;51.164;16.924;2022-12-18T21:33:03;15.60;32.20
21801;DHT22;11062;51.164;16.924;2022-12-18T21:35:42;15.40;32.40
21801;DHT22;11062;51.164;16.924;2022-12-18T21:38:11;15.70;32.30
21801;DHT22;11062;51.164;16.924;2022-12-18T21:43:07;15.60;33.90
21801;DHT22;11062;51.164;16.924;2022-12-18T21:48:24;15.80;32.10
21801;DHT22;11062;51.164;16.924;2022-12-18T22:15:13;16.50;33.30
21801;DHT22;11062;51.164;16.924;2022-12-18T22:32:28;17.60;31.20
21801;DHT22;11062;51.164;16.924;2022-12-18T22:42:18;17.30;30.10
21801;DHT22;11062;51.164;16.924;2022-12-18T22:52:05;16.90;30.20
21801;DHT22;11062;51.164;16.924;2022-12-18T23:01:51;16.80;32.00
21801;DHT22;11062;51.164;16.924;2022-12-18T23:09:15;16.40;30.60
21801;DHT22;11062;51.164;16.924;2022-12-18T23:31:26;16.60;30.10
21801;DHT22;11062;51.164;16.924;2022-12-18T23:33:53;16.60;30.20
21801;DHT22;11062;51.164;16.924;2022-12-18T23:36:20;16.50;31.50
21801;DHT22;11062;51.164;16.924;2022-12-18T23:38:48;16.50;30.10
21801;DHT22;11062;51.164;16.924;2022-12-18T23:41:16;16.30;30.20
21801;DHT22;11062;51.164;16.924;2022-12-18T23:46:10;16.40;30.20
21801;DHT22;11062;51.164;16.924;2022-12-18T23:51:07;16.20;30.20
21801;DHT22;11062;51.164;16.924;2022-12-18T23:53:34;16.30;31.40
21801;DHT22;11062;51.164;16.924;2022-12-18T23:56:03;16.30;30.30
